createdAt,value
2023-03-28T00:03:46.838Z,15.45
2023-03-28T00:13:58.361Z,15.34
2023-03-28T00:24:04.450Z,15.26
2023-03-28T00:34:07.104Z,15.18
2023-03-28T00:44:42.183Z,15.12
2023-03-28T00:54:43.985Z,15.07
2023-03-28T01:04:52.034Z,14.97
2023-03-28T01:14:53.418Z,14.81
2023-03-28T01:25:31.749Z,15.04
2023-03-28T01:35:46.499Z,15.26
2023-03-28T01:45:59.262Z,15.55
2023-03-28T01:56:14.061Z,15.76
2023-03-28T02:06:15.548Z,15.89
2023-03-28T02:16:17.004Z,16.01
2023-03-28T02:26:19.225Z,16.12
2023-03-28T02:36:31.532Z,16.16
2023-03-28T02:47:03.254Z,16.11
2023-03-28T02:57:19.797Z,16.03
2023-03-28T03:07:21.663Z,15.88
2023-03-28T03:17:23.036Z,15.68
2023-03-28T03:27:24.451Z,15.54
2023-03-28T03:37:26.002Z,15.36
2023-03-28T03:47:27.612Z,15.24
2023-03-28T03:57:28.998Z,15.17
2023-03-28T04:07:31.018Z,15.21
2023-03-28T04:17:35.118Z,15.42
2023-03-28T04:27:36.907Z,15.59
2023-03-28T04:37:38.528Z,15.85
2023-03-28T04:47:40.976Z,16.06
2023-03-28T04:57:42.390Z,16.17
2023-03-28T05:07:43.958Z,16.23
2023-03-28T05:17:45.419Z,16.18
2023-03-28T05:27:46.980Z,16.16
2023-03-28T05:37:48.427Z,16.12
2023-03-28T05:47:51.641Z,16.16
2023-03-28T05:57:53.098Z,16.28
2023-03-28T06:07:54.723Z,16.42
2023-03-28T06:17:57.774Z,16.46
2023-03-28T06:27:59.290Z,16.67
2023-03-28T06:38:01.010Z,16.97
2023-03-28T06:48:02.643Z,17.51
2023-03-28T06:58:04.106Z,17.81
2023-03-28T07:08:06.821Z,18.11
2023-03-28T07:18:10.777Z,18.39
2023-03-28T07:28:12.264Z,18.59
2023-03-28T07:38:13.805Z,19.02
2023-03-28T07:48:15.188Z,19.31
2023-03-28T07:58:16.748Z,19.54
2023-03-28T08:08:20.415Z,19.76
2023-03-28T08:18:24.091Z,19.95
2023-03-28T08:28:26.228Z,20.16
2023-03-28T08:38:27.651Z,20.46
2023-03-28T08:48:34.678Z,20.60
2023-03-28T08:59:15.825Z,21.06
2023-03-28T09:09:38.207Z,21.14
2023-03-28T09:20:11.615Z,22.03
2023-03-28T09:30:23.256Z,20.96
2023-03-28T09:40:34.441Z,20.67
2023-03-28T09:50:36.165Z,21.22
2023-03-28T10:00:42.962Z,21.15
2023-03-28T10:10:44.357Z,20.92
2023-03-28T10:20:45.834Z,20.31
2023-03-28T10:30:54.836Z,20.01
2023-03-28T10:41:00.862Z,19.81
2023-03-28T10:51:08.321Z,19.67
2023-03-28T11:01:17.697Z,19.62
2023-03-28T11:11:37.552Z,19.57
2023-03-28T11:22:00.595Z,19.44
2023-03-28T11:32:08.302Z,19.34
2023-03-28T11:42:21.312Z,19.29
2023-03-28T11:52:28.343Z,19.25
2023-03-28T12:02:29.999Z,19.16
2023-03-28T12:12:41.591Z,19.11
2023-03-28T12:22:50.128Z,19.07
2023-03-28T12:33:03.779Z,18.97
2023-03-28T12:43:05.425Z,18.74
2023-03-28T12:53:07.691Z,18.59
2023-03-28T13:03:43.915Z,18.44
2023-03-28T13:14:02.172Z,18.32
2023-03-28T13:24:03.551Z,18.27
2023-03-28T13:34:05.332Z,18.17
2023-03-28T13:44:10.892Z,18.11
2023-03-28T13:54:12.300Z,17.97
2023-03-28T14:04:23.906Z,17.92
2023-03-28T14:14:27.612Z,17.86
2023-03-28T14:24:29.004Z,17.79
2023-03-28T14:34:30.379Z,17.70
2023-03-28T14:44:35.812Z,17.63
2023-03-28T14:54:39.246Z,17.59
2023-03-28T15:04:41.059Z,17.50
2023-03-28T15:14:43.414Z,17.46
2023-03-28T15:24:45.021Z,17.40
2023-03-28T15:34:48.319Z,17.32
2023-03-28T15:44:58.848Z,17.26
2023-03-28T15:55:00.947Z,17.22
2023-03-28T16:05:14.556Z,17.16
2023-03-28T16:15:16.048Z,17.11
2023-03-28T16:25:17.480Z,17.04
2023-03-28T16:35:19.030Z,16.99
2023-03-28T16:45:20.671Z,16.92
2023-03-28T16:55:22.088Z,16.88
2023-03-28T17:05:23.492Z,16.78
2023-03-28T17:15:24.889Z,16.71
2023-03-28T17:25:26.765Z,16.65
2023-03-28T17:35:28.175Z,16.59
2023-03-28T17:45:30.035Z,16.53
2023-03-28T17:55:31.440Z,16.49
2023-03-28T18:05:32.859Z,16.42
2023-03-28T18:15:36.132Z,16.38
2023-03-28T18:25:38.306Z,16.31
2023-03-28T18:35:39.823Z,16.33
2023-03-28T18:45:41.669Z,16.28
2023-03-28T18:55:43.192Z,16.26
2023-03-28T19:05:44.595Z,16.21
2023-03-28T19:15:46.156Z,16.18
2023-03-28T19:25:48.506Z,16.15
2023-03-28T19:35:50.076Z,16.13
2023-03-28T19:45:51.612Z,16.07
2023-03-28T19:55:54.096Z,16.02
2023-03-28T20:05:55.510Z,16.00
2023-03-28T20:15:56.938Z,15.94
2023-03-28T20:25:59.660Z,15.89
2023-03-28T20:36:01.531Z,15.83
2023-03-28T20:46:03.074Z,15.75
2023-03-28T20:56:05.010Z,15.72
2023-03-28T21:06:07.802Z,15.70
2023-03-28T21:16:09.581Z,15.62
2023-03-28T21:26:13.441Z,15.57
2023-03-28T21:36:18.281Z,15.50
2023-03-28T21:46:20.750Z,15.47
2023-03-28T21:56:22.968Z,15.41
2023-03-28T22:06:24.366Z,15.46
2023-03-28T22:16:25.879Z,15.68
2023-03-28T22:26:28.147Z,15.99
2023-03-28T22:36:29.626Z,16.22
2023-03-28T22:46:31.163Z,16.37
2023-03-28T22:56:33.766Z,16.53
2023-03-28T23:06:36.105Z,16.64
2023-03-28T23:16:38.348Z,16.73
2023-03-28T23:26:39.814Z,16.70
2023-03-28T23:36:41.232Z,16.60
2023-03-28T23:46:42.634Z,16.50
2023-03-28T23:56:45.016Z,16.31
